Climatempo

Climatempo Meteorologia

Obter
publicidade

Problemas persistem em Bariloche, por causa do vulcão

05/06/2011 às 17:40
por Alexandre Nascimento

>O METAR é um código usado pelos aeroportos para descrever as condições da atmosfera na região de forma padronizada no mundo todo. O METAR abaixo é de Bariloche e mostra que há fumaça na região e cinzas vulcânicas no aeroporto. 05/06/2011 SAZS 052000Z 14002KT (14004KMH) 5000 FU FEW008 SCT020BKN200 06/04 Q1013 REDEPOSITO DE CENIZA VOLCANICA SOBRE ELAEROPUERTO / SE OBSERVA NUBE DE CENIZA VOLCANICA EN LASPROXIMIDADES DEL AD EN TODAS SUS DIRECCIONES

FASES DA LUA

  • Minguante
    19/01
  • Nova
    27/01
  • Crescente
    05/01
  • Cheia
    12/01

ESTAÇÕES DO ANO

  • Verão
    21/12
  • Outono
    20/03
  • Inverno
    21/06
  • Primavera
    22/09